sensor_id;sensor_type;location;lat;lon;timestamp;pressure;altitude;pressure_sealevel;temperature;humidity
67013;BME280;53926;47.406;19.188;2023-01-25T00:01:36;101942.53;;;-3.38;100.00
67013;BME280;53926;47.406;19.188;2023-01-25T00:04:05;101934.28;;;-3.44;100.00
67013;BME280;53926;47.406;19.188;2023-01-25T00:06:31;101933.97;;;-3.37;100.00
67013;BME280;53926;47.406;19.188;2023-01-25T00:08:58;101948.06;;;-3.30;100.00
67013;BME280;53926;47.406;19.188;2023-01-25T00:11:25;101945.22;;;-3.42;100.00
67013;BME280;53926;47.406;19.188;2023-01-25T00:13:53;101940.06;;;-3.40;100.00
67013;BME280;53926;47.406;19.188;2023-01-25T00:16:19;101937.56;;;-3.24;100.00
67013;BME280;53926;47.406;19.188;2023-01-25T00:18:47;101951.50;;;-3.31;100.00
67013;BME280;53926;47.406;19.188;2023-01-25T00:21:19;101948.59;;;-3.41;100.00
67013;BME280;53926;47.406;19.188;2023-01-25T00:23:47;101945.16;;;-3.07;100.00
67013;BME280;53926;47.406;19.188;2023-01-25T00:26:18;101953.06;;;-3.29;100.00
67013;BME280;53926;47.406;19.188;2023-01-25T00:28:52;101953.00;;;-3.27;100.00
67013;BME280;53926;47.406;19.188;2023-01-25T00:39:24;101965.06;;;-3.48;100.00
67013;BME280;53926;47.406;19.188;2023-01-25T00:41:52;101962.72;;;-3.53;100.00
67013;BME280;53926;47.406;19.188;2023-01-25T00:44:19;101955.63;;;-3.46;100.00
67013;BME280;53926;47.406;19.188;2023-01-25T00:46:46;101957.19;;;-3.44;100.00
67013;BME280;53926;47.406;19.188;2023-01-25T00:49:24;101957.19;;;-3.44;100.00
67013;BME280;53926;47.406;19.188;2023-01-25T00:51:52;101954.66;;;-3.61;100.00
67013;BME280;53926;47.406;19.188;2023-01-25T00:54:22;101962.00;;;-3.55;100.00
67013;BME280;53926;47.406;19.188;2023-01-25T00:56:49;101962.50;;;-3.48;100.00
67013;BME280;53926;47.406;19.188;2023-01-25T00:59:18;101962.72;;;-3.70;100.00
67013;BME280;53926;47.406;19.188;2023-01-25T01:01:45;101960.34;;;-3.73;100.00
67013;BME280;53926;47.406;19.188;2023-01-25T01:04:14;101966.72;;;-3.65;100.00
67013;BME280;53926;47.406;19.188;2023-01-25T01:06:42;101970.06;;;-3.64;100.00
67013;BME280;53926;47.406;19.188;2023-01-25T01:09:16;101973.88;;;-3.73;100.00
67013;BME280;53926;47.406;19.188;2023-01-25T01:11:43;101972.59;;;-3.82;100.00
67013;BME280;53926;47.406;19.188;2023-01-25T01:14:11;101969.78;;;-3.95;100.00
67013;BME280;53926;47.406;19.188;2023-01-25T01:16:38;101970.66;;;-3.77;100.00
67013;BME280;53926;47.406;19.188;2023-01-25T01:19:05;101979.97;;;-3.75;100.00
67013;BME280;53926;47.406;19.188;2023-01-25T01:21:32;101980.88;;;-3.96;100.00
67013;BME280;53926;47.406;19.188;2023-01-25T01:23:58;101974.16;;;-3.97;100.00
67013;BME280;53926;47.406;19.188;2023-01-25T01:26:25;101970.72;;;-3.96;100.00
67013;BME280;53926;47.406;19.188;2023-01-25T01:28:52;101974.66;;;-3.90;100.00
67013;BME280;53926;47.406;19.188;2023-01-25T01:31:21;101975.97;;;-3.81;100.00
67013;BME280;53926;47.406;19.188;2023-01-25T01:33:53;101975.44;;;-3.88;100.00
67013;BME280;53926;47.406;19.188;2023-01-25T01:36:25;101968.09;;;-3.94;100.00
67013;BME280;53926;47.406;19.188;2023-01-25T01:38:52;101975.72;;;-3.94;100.00
67013;BME280;53926;47.406;19.188;2023-01-25T01:41:21;101976.63;;;-3.95;100.00
67013;BME280;53926;47.406;19.188;2023-01-25T01:43:48;101970.94;;;-4.00;100.00
67013;BME280;53926;47.406;19.188;2023-01-25T01:46:21;101970.62;;;-3.94;100.00
67013;BME280;53926;47.406;19.188;2023-01-25T01:53:56;101976.41;;;-3.90;100.00
67013;BME280;53926;47.406;19.188;2023-01-25T01:56:51;101972.31;;;-3.75;100.00
67013;BME280;53926;47.406;19.188;2023-01-25T01:59:23;101962.72;;;-3.88;100.00
67013;BME280;53926;47.406;19.188;2023-01-25T02:01:51;101966.59;;;-3.81;100.00
67013;BME280;53926;47.406;19.188;2023-01-25T02:04:18;101957.78;;;-3.73;100.00
67013;BME280;53926;47.406;19.188;2023-01-25T02:06:53;101954.25;;;-3.88;100.00
67013;BME280;53926;47.406;19.188;2023-01-25T02:09:22;101954.38;;;-3.91;100.00
67013;BME280;53926;47.406;19.188;2023-01-25T02:11:51;101947.66;;;-3.92;100.00
67013;BME280;53926;47.406;19.188;2023-01-25T02:14:20;101956.56;;;-3.84;100.00
67013;BME280;53926;47.406;19.188;2023-01-25T02:16:49;101951.19;;;-3.78;100.00
67013;BME280;53926;47.406;19.188;2023-01-25T02:19:27;101948.84;;;-3.82;100.00
67013;BME280;53926;47.406;19.188;2023-01-25T02:21:58;101946.38;;;-3.84;100.00
67013;BME280;53926;47.406;19.188;2023-01-25T02:24:29;101956.78;;;-3.88;100.00
67013;BME280;53926;47.406;19.188;2023-01-25T02:26:58;101951.09;;;-3.93;100.00
67013;BME280;53926;47.406;19.188;2023-01-25T02:29:25;101950.34;;;-3.96;100.00
67013;BME280;53926;47.406;19.188;2023-01-25T02:32:01;101941.34;;;-4.03;100.00
67013;BME280;53926;47.406;19.188;2023-01-25T02:34:27;101947.59;;;-3.91;100.00
67013;BME280;53926;47.406;19.188;2023-01-25T02:36:54;101937.69;;;-3.97;100.00
67013;BME280;53926;47.406;19.188;2023-01-25T02:39:21;101927.16;;;-3.89;100.00
67013;BME280;53926;47.406;19.188;2023-01-25T02:41:51;101928.56;;;-3.84;100.00
67013;BME280;53926;47.406;19.188;2023-01-25T02:44:25;101919.38;;;-3.86;100.00
67013;BME280;53926;47.406;19.188;2023-01-25T02:46:55;101917.94;;;-3.74;100.00
67013;BME280;53926;47.406;19.188;2023-01-25T02:49:23;101919.09;;;-3.63;100.00
67013;BME280;53926;47.406;19.188;2023-01-25T02:51:52;101913.00;;;-3.78;100.00
67013;BME280;53926;47.406;19.188;2023-01-25T02:54:23;101910.09;;;-3.70;100.00
67013;BME280;53926;47.406;19.188;2023-01-25T02:56:51;101907.69;;;-3.73;100.00
67013;BME280;53926;47.406;19.188;2023-01-25T02:59:18;101902.66;;;-3.74;100.00
67013;BME280;53926;47.406;19.188;2023-01-25T03:01:46;101913.78;;;-3.75;100.00
67013;BME280;53926;47.406;19.188;2023-01-25T03:04:13;101904.47;;;-3.77;100.00
67013;BME280;53926;47.406;19.188;2023-01-25T03:06:40;101913.16;;;-3.81;100.00
67013;BME280;53926;47.406;19.188;2023-01-25T03:09:10;101909.94;;;-3.84;100.00
67013;BME280;53926;47.406;19.188;2023-01-25T03:11:37;101904.47;;;-3.94;100.00
67013;BME280;53926;47.406;19.188;2023-01-25T03:14:03;101901.94;;;-3.94;100.00
67013;BME280;53926;47.406;19.188;2023-01-25T03:16:30;101900.41;;;-3.98;100.00
67013;BME280;53926;47.406;19.188;2023-01-25T03:18:57;101900.81;;;-3.71;100.00
67013;BME280;53926;47.406;19.188;2023-01-25T03:21:26;101903.88;;;-3.64;100.00
67013;BME280;53926;47.406;19.188;2023-01-25T03:23:58;101899.22;;;-3.38;100.00
67013;BME280;53926;47.406;19.188;2023-01-25T03:26:25;101896.53;;;-3.35;100.00
67013;BME280;53926;47.406;19.188;2023-01-25T03:28:52;101891.59;;;-3.38;100.00
67013;BME280;53926;47.406;19.188;2023-01-25T03:31:21;101895.84;;;-3.39;100.00
67013;BME280;53926;47.406;19.188;2023-01-25T03:33:50;101902.19;;;-3.30;100.00
67013;BME280;53926;47.406;19.188;2023-01-25T03:36:17;101902.13;;;-2.95;100.00
67013;BME280;53926;47.406;19.188;2023-01-25T03:38:43;101900.87;;;-2.88;100.00
67013;BME280;53926;47.406;19.188;2023-01-25T03:41:10;101907.75;;;-2.57;100.00
67013;BME280;53926;47.406;19.188;2023-01-25T03:43:39;101903.16;;;-2.50;100.00
67013;BME280;53926;47.406;19.188;2023-01-25T03:46:07;101902.91;;;-2.61;100.00
67013;BME280;53926;47.406;19.188;2023-01-25T03:48:36;101912.25;;;-2.30;100.00
67013;BME280;53926;47.406;19.188;2023-01-25T03:51:03;101916.78;;;-2.19;100.00
67013;BME280;53926;47.406;19.188;2023-01-25T03:53:30;101907.25;;;-2.31;100.00
67013;BME280;53926;47.406;19.188;2023-01-25T03:56:05;101908.50;;;-2.39;100.00
67013;BME280;53926;47.406;19.188;2023-01-25T03:58:35;101913.38;;;-2.34;100.00
67013;BME280;53926;47.406;19.188;2023-01-25T04:01:03;101914.06;;;-2.16;100.00
67013;BME280;53926;47.406;19.188;2023-01-25T04:03:30;101914.87;;;-2.00;100.00
67013;BME280;53926;47.406;19.188;2023-01-25T04:05:57;101911.00;;;-1.91;100.00
67013;BME280;53926;47.406;19.188;2023-01-25T04:08:24;101922.53;;;-1.69;100.00
67013;BME280;53926;47.406;19.188;2023-01-25T04:10:52;101915.16;;;-1.59;100.00
67013;BME280;53926;47.406;19.188;2023-01-25T04:13:21;101915.19;;;-1.45;100.00
67013;BME280;53926;47.406;19.188;2023-01-25T04:15:48;101913.84;;;-1.36;100.00
67013;BME280;53926;47.406;19.188;2023-01-25T04:18:15;101910.38;;;-1.21;100.00
67013;BME280;53926;47.406;19.188;2023-01-25T04:20:45;101912.75;;;-1.18;100.00
67013;BME280;53926;47.406;19.188;2023-01-25T04:23:17;101920.34;;;-1.16;100.00
67013;BME280;53926;47.406;19.188;2023-01-25T04:28:23;101917.78;;;-1.02;100.00
67013;BME280;53926;47.406;19.188;2023-01-25T04:30:51;101921.09;;;-1.00;100.00
67013;BME280;53926;47.406;19.188;2023-01-25T04:33:18;101912.09;;;-0.93;100.00
67013;BME280;53926;47.406;19.188;2023-01-25T04:35:45;101913.22;;;-0.82;100.00
67013;BME280;53926;47.406;19.188;2023-01-25T04:38:12;101914.94;;;-0.83;100.00
67013;BME280;53926;47.406;19.188;2023-01-25T04:40:42;101914.09;;;-0.83;100.00
67013;BME280;53926;47.406;19.188;2023-01-25T04:43:18;101910.28;;;-0.76;100.00
67013;BME280;53926;47.406;19.188;2023-01-25T04:45:45;101914.56;;;-0.77;100.00
67013;BME280;53926;47.406;19.188;2023-01-25T04:48:12;101917.31;;;-0.80;100.00
67013;BME280;53926;47.406;19.188;2023-01-25T04:50:41;101915.66;;;-0.81;100.00
67013;BME280;53926;47.406;19.188;2023-01-25T04:53:09;101915.09;;;-0.72;100.00
67013;BME280;53926;47.406;19.188;2023-01-25T04:55:38;101914.75;;;-0.80;100.00
67013;BME280;53926;47.406;19.188;2023-01-25T04:58:05;101907.91;;;-0.79;100.00
67013;BME280;53926;47.406;19.188;2023-01-25T05:00:32;101902.22;;;-0.70;100.00
67013;BME280;53926;47.406;19.188;2023-01-25T05:03:01;101908.44;;;-0.74;100.00
67013;BME280;53926;47.406;19.188;2023-01-25T05:05:28;101900.75;;;-0.74;100.00
67013;BME280;53926;47.406;19.188;2023-01-25T05:07:55;101906.44;;;-0.69;100.00
67013;BME280;53926;47.406;19.188;2023-01-25T05:10:23;101901.94;;;-0.65;100.00
67013;BME280;53926;47.406;19.188;2023-01-25T05:12:50;101903.88;;;-0.69;100.00
67013;BME280;53926;47.406;19.188;2023-01-25T05:15:18;101912.28;;;-0.67;100.00
67013;BME280;53926;47.406;19.188;2023-01-25T05:17:45;101917.19;;;-0.64;100.00
67013;BME280;53926;47.406;19.188;2023-01-25T05:20:11;101925.88;;;-0.66;100.00
67013;BME280;53926;47.406;19.188;2023-01-25T05:22:40;101914.34;;;-0.59;100.00
67013;BME280;53926;47.406;19.188;2023-01-25T05:25:09;101915.34;;;-0.62;100.00
67013;BME280;53926;47.406;19.188;2023-01-25T05:27:56;101917.72;;;-0.59;100.00
67013;BME280;53926;47.406;19.188;2023-01-25T05:30:22;101918.19;;;-0.52;100.00
67013;BME280;53926;47.406;19.188;2023-01-25T05:32:51;101917.44;;;-0.54;100.00
67013;BME280;53926;47.406;19.188;2023-01-25T05:35:18;101919.09;;;-0.53;100.00
67013;BME280;53926;47.406;19.188;2023-01-25T05:37:45;101914.44;;;-0.61;100.00
67013;BME280;53926;47.406;19.188;2023-01-25T05:40:11;101914.97;;;-0.56;100.00
67013;BME280;53926;47.406;19.188;2023-01-25T05:42:38;101916.00;;;-0.58;100.00
67013;BME280;53926;47.406;19.188;2023-01-25T05:45:08;101915.44;;;-0.49;100.00
67013;BME280;53926;47.406;19.188;2023-01-25T05:47:35;101912.22;;;-0.52;100.00
67013;BME280;53926;47.406;19.188;2023-01-25T05:50:02;101908.19;;;-0.42;100.00
67013;BME280;53926;47.406;19.188;2023-01-25T05:52:29;101908.84;;;-0.53;100.00
67013;BME280;53926;47.406;19.188;2023-01-25T05:54:57;101909.56;;;-0.51;100.00
67013;BME280;53926;47.406;19.188;2023-01-25T05:57:24;101910.22;;;-0.47;100.00
67013;BME280;53926;47.406;19.188;2023-01-25T05:59:53;101911.13;;;-0.48;100.00
67013;BME280;53926;47.406;19.188;2023-01-25T06:02:20;101914.78;;;-0.52;100.00
67013;BME280;53926;47.406;19.188;2023-01-25T06:04:48;101917.34;;;-0.52;100.00
67013;BME280;53926;47.406;19.188;2023-01-25T06:07:15;101917.72;;;-0.44;100.00
67013;BME280;53926;47.406;19.188;2023-01-25T06:09:44;101919.72;;;-0.49;100.00
67013;BME280;53926;47.406;19.188;2023-01-25T06:12:10;101916.41;;;-0.37;100.00
67013;BME280;53926;47.406;19.188;2023-01-25T06:14:37;101923.03;;;-0.47;100.00
67013;BME280;53926;47.406;19.188;2023-01-25T06:17:06;101925.09;;;-0.40;100.00
67013;BME280;53926;47.406;19.188;2023-01-25T06:19:32;101927.38;;;-0.35;100.00
67013;BME280;53926;47.406;19.188;2023-01-25T06:21:59;101924.25;;;-0.40;100.00
67013;BME280;53926;47.406;19.188;2023-01-25T06:24:26;101933.62;;;-0.26;100.00
67013;BME280;53926;47.406;19.188;2023-01-25T06:26:52;101932.69;;;-0.38;100.00
67013;BME280;53926;47.406;19.188;2023-01-25T06:29:19;101940.47;;;-0.40;100.00
67013;BME280;53926;47.406;19.188;2023-01-25T06:31:45;101942.75;;;-0.35;100.00
67013;BME280;53926;47.406;19.188;2023-01-25T06:34:13;101937.44;;;-0.32;100.00
67013;BME280;53926;47.406;19.188;2023-01-25T06:36:40;101940.41;;;-0.25;100.00
67013;BME280;53926;47.406;19.188;2023-01-25T06:39:07;101935.37;;;-0.27;100.00
67013;BME280;53926;47.406;19.188;2023-01-25T06:41:34;101939.50;;;-0.24;100.00
67013;BME280;53926;47.406;19.188;2023-01-25T06:44:00;101941.69;;;-0.18;100.00
67013;BME280;53926;47.406;19.188;2023-01-25T06:46:27;101938.28;;;-0.19;100.00
67013;BME280;53926;47.406;19.188;2023-01-25T06:48:57;101934.34;;;-0.10;100.00
67013;BME280;53926;47.406;19.188;2023-01-25T06:51:23;101941.19;;;-0.10;100.00
67013;BME280;53926;47.406;19.188;2023-01-25T06:53:50;101942.41;;;-0.16;100.00
67013;BME280;53926;47.406;19.188;2023-01-25T06:56:21;101940.94;;;-0.20;100.00
67013;BME280;53926;47.406;19.188;2023-01-25T06:58:48;101943.59;;;-0.22;100.00
67013;BME280;53926;47.406;19.188;2023-01-25T07:01:21;101942.66;;;-0.33;100.00
67013;BME280;53926;47.406;19.188;2023-01-25T07:03:51;101949.19;;;-0.29;100.00
67013;BME280;53926;47.406;19.188;2023-01-25T07:06:18;101936.53;;;-0.45;100.00
67013;BME280;53926;47.406;19.188;2023-01-25T07:08:48;101948.56;;;-0.33;100.00
67013;BME280;53926;47.406;19.188;2023-01-25T07:11:15;101948.63;;;-0.47;100.00
67013;BME280;53926;47.406;19.188;2023-01-25T07:13:45;101951.47;;;-0.52;100.00
67013;BME280;53926;47.406;19.188;2023-01-25T07:16:18;101941.56;;;-0.44;100.00
67013;BME280;53926;47.406;19.188;2023-01-25T07:18:46;101940.59;;;-0.28;100.00
67013;BME280;53926;47.406;19.188;2023-01-25T07:21:15;101937.63;;;-0.35;100.00
67013;BME280;53926;47.406;19.188;2023-01-25T07:23:43;101945.53;;;-0.25;100.00
67013;BME280;53926;47.406;19.188;2023-01-25T07:26:20;101944.09;;;-0.02;100.00
67013;BME280;53926;47.406;19.188;2023-01-25T07:28:48;101950.59;;;-0.11;100.00
67013;BME280;53926;47.406;19.188;2023-01-25T07:31:16;101945.97;;;0.09;100.00
67013;BME280;53926;47.406;19.188;2023-01-25T07:33:47;101947.22;;;0.16;100.00
67013;BME280;53926;47.406;19.188;2023-01-25T07:36:14;101949.09;;;0.27;100.00
67013;BME280;53926;47.406;19.188;2023-01-25T07:38:41;101942.06;;;0.03;100.00
67013;BME280;53926;47.406;19.188;2023-01-25T07:41:08;101957.34;;;0.05;100.00
67013;BME280;53926;47.406;19.188;2023-01-25T07:43:35;101954.88;;;0.03;100.00
67013;BME280;53926;47.406;19.188;2023-01-25T07:46:09;101955.13;;;0.26;100.00
67013;BME280;53926;47.406;19.188;2023-01-25T07:48:40;101954.41;;;0.24;100.00
67013;BME280;53926;47.406;19.188;2023-01-25T07:51:10;101956.84;;;0.12;100.00
67013;BME280;53926;47.406;19.188;2023-01-25T07:53:41;101947.09;;;0.05;100.00
67013;BME280;53926;47.406;19.188;2023-01-25T07:56:11;101944.88;;;0.26;100.00
67013;BME280;53926;47.406;19.188;2023-01-25T07:58:38;101948.72;;;0.46;100.00
67013;BME280;53926;47.406;19.188;2023-01-25T08:01:15;101942.72;;;0.73;100.00
67013;BME280;53926;47.406;19.188;2023-01-25T08:03:43;101947.28;;;1.06;100.00
67013;BME280;53926;47.406;19.188;2023-01-25T08:06:10;101943.00;;;0.94;100.00
67013;BME280;53926;47.406;19.188;2023-01-25T08:08:45;101939.00;;;0.64;100.00
67013;BME280;53926;47.406;19.188;2023-01-25T08:11:20;101942.41;;;0.77;100.00
67013;BME280;53926;47.406;19.188;2023-01-25T08:13:47;101939.72;;;0.79;100.00
67013;BME280;53926;47.406;19.188;2023-01-25T08:16:19;101944.81;;;1.04;100.00
67013;BME280;53926;47.406;19.188;2023-01-25T08:18:51;101945.78;;;1.03;100.00
67013;BME280;53926;47.406;19.188;2023-01-25T08:21:19;101945.97;;;1.00;100.00
67013;BME280;53926;47.406;19.188;2023-01-25T08:23:46;101935.63;;;1.02;100.00
67013;BME280;53926;47.406;19.188;2023-01-25T08:26:15;101947.88;;;1.22;100.00
67013;BME280;53926;47.406;19.188;2023-01-25T08:28:43;101934.47;;;1.56;100.00
67013;BME280;53926;47.406;19.188;2023-01-25T08:31:18;101936.62;;;1.49;100.00
67013;BME280;53926;47.406;19.188;2023-01-25T08:33:47;101929.22;;;1.57;100.00
67013;BME280;53926;47.406;19.188;2023-01-25T08:36:17;101935.34;;;1.31;100.00
67013;BME280;53926;47.406;19.188;2023-01-25T08:38:45;101929.75;;;1.50;100.00
67013;BME280;53926;47.406;19.188;2023-01-25T08:41:14;101927.53;;;1.32;100.00
67013;BME280;53926;47.406;19.188;2023-01-25T08:43:45;101935.00;;;1.48;100.00
67013;BME280;53926;47.406;19.188;2023-01-25T08:46:15;101933.97;;;1.75;100.00
67013;BME280;53926;47.406;19.188;2023-01-25T08:48:42;101930.09;;;1.45;100.00
67013;BME280;53926;47.406;19.188;2023-01-25T08:51:11;101928.84;;;1.75;100.00
67013;BME280;53926;47.406;19.188;2023-01-25T08:53:39;101931.31;;;2.01;100.00
67013;BME280;53926;47.406;19.188;2023-01-25T08:56:11;101930.56;;;1.99;100.00
67013;BME280;53926;47.406;19.188;2023-01-25T08:58:40;101928.44;;;2.17;100.00
67013;BME280;53926;47.406;19.188;2023-01-25T09:01:09;101937.06;;;2.15;100.00
67013;BME280;53926;47.406;19.188;2023-01-25T09:03:39;101926.50;;;1.96;100.00
67013;BME280;53926;47.406;19.188;2023-01-25T09:06:06;101930.56;;;1.50;100.00
67013;BME280;53926;47.406;19.188;2023-01-25T09:08:33;101924.63;;;1.74;100.00
67013;BME280;53926;47.406;19.188;2023-01-25T09:11:02;101920.91;;;2.02;100.00
67013;BME280;53926;47.406;19.188;2023-01-25T09:13:28;101928.94;;;1.73;100.00
67013;BME280;53926;47.406;19.188;2023-01-25T09:16:16;101922.16;;;1.72;100.00
67013;BME280;53926;47.406;19.188;2023-01-25T09:18:45;101925.34;;;1.52;100.00
67013;BME280;53926;47.406;19.188;2023-01-25T09:21:19;101913.38;;;1.64;100.00
67013;BME280;53926;47.406;19.188;2023-01-25T09:23:51;101913.97;;;1.91;100.00
67013;BME280;53926;47.406;19.188;2023-01-25T09:26:34;101915.66;;;2.04;100.00
67013;BME280;53926;47.406;19.188;2023-01-25T09:29:01;101910.31;;;1.83;100.00
67013;BME280;53926;47.406;19.188;2023-01-25T09:31:30;101914.50;;;2.08;100.00
67013;BME280;53926;47.406;19.188;2023-01-25T09:33:57;101915.41;;;1.71;100.00
67013;BME280;53926;47.406;19.188;2023-01-25T09:36:24;101910.66;;;1.78;100.00
67013;BME280;53926;47.406;19.188;2023-01-25T09:38:52;101909.62;;;2.16;100.00
67013;BME280;53926;47.406;19.188;2023-01-25T09:41:29;101909.97;;;2.11;100.00
67013;BME280;53926;47.406;19.188;2023-01-25T09:46:57;101902.00;;;2.50;100.00
67013;BME280;53926;47.406;19.188;2023-01-25T09:49:42;101907.28;;;2.71;100.00
67013;BME280;53926;47.406;19.188;2023-01-25T09:54:45;101894.28;;;2.50;100.00
67013;BME280;53926;47.406;19.188;2023-01-25T09:57:38;101891.84;;;2.71;100.00
67013;BME280;53926;47.406;19.188;2023-01-25T10:00:20;101890.06;;;3.06;100.00
67013;BME280;53926;47.406;19.188;2023-01-25T10:05:30;101883.03;;;2.40;100.00
67013;BME280;53926;47.406;19.188;2023-01-25T10:08:05;101884.37;;;2.10;100.00
67013;BME280;53926;47.406;19.188;2023-01-25T10:10:37;101870.19;;;2.40;100.00
67013;BME280;53926;47.406;19.188;2023-01-25T10:13:10;101862.69;;;2.37;100.00
67013;BME280;53926;47.406;19.188;2023-01-25T10:15:41;101857.44;;;2.27;100.00
67013;BME280;53926;47.406;19.188;2023-01-25T10:21:22;101863.75;;;3.13;100.00
67013;BME280;53926;47.406;19.188;2023-01-25T10:26:51;101856.06;;;2.79;100.00
67013;BME280;53926;47.406;19.188;2023-01-25T10:29:22;101849.97;;;2.92;100.00
67013;BME280;53926;47.406;19.188;2023-01-25T10:32:23;101850.81;;;2.70;100.00
67013;BME280;53926;47.406;19.188;2023-01-25T10:34:55;101840.25;;;2.39;100.00
67013;BME280;53926;47.406;19.188;2023-01-25T10:37:24;101841.53;;;2.56;100.00
67013;BME280;53926;47.406;19.188;2023-01-25T10:42:30;101835.84;;;2.75;100.00
67013;BME280;53926;47.406;19.188;2023-01-25T10:44:58;101828.91;;;2.98;100.00
67013;BME280;53926;47.406;19.188;2023-01-25T10:47:30;101831.16;;;2.46;100.00
67013;BME280;53926;47.406;19.188;2023-01-25T10:50:02;101828.81;;;2.77;100.00
67013;BME280;53926;47.406;19.188;2023-01-25T10:52:30;101822.88;;;2.42;100.00
67013;BME280;53926;47.406;19.188;2023-01-25T10:55:19;101818.41;;;2.33;100.00
67013;BME280;53926;47.406;19.188;2023-01-25T10:57:50;101818.88;;;2.49;100.00
67013;BME280;53926;47.406;19.188;2023-01-25T11:02:50;101811.28;;;2.48;100.00
67013;BME280;53926;47.406;19.188;2023-01-25T11:07:47;101807.09;;;2.70;100.00
67013;BME280;53926;47.406;19.188;2023-01-25T11:10:34;101808.94;;;2.90;100.00
67013;BME280;53926;47.406;19.188;2023-01-25T11:15:41;101797.22;;;2.97;100.00
67013;BME280;53926;47.406;19.188;2023-01-25T11:18:30;101791.84;;;2.89;100.00
67013;BME280;53926;47.406;19.188;2023-01-25T11:21:05;101787.22;;;3.15;100.00
67013;BME280;53926;47.406;19.188;2023-01-25T11:23:33;101794.16;;;2.92;100.00
67013;BME280;53926;47.406;19.188;2023-01-25T11:26:13;101783.69;;;2.84;100.00
67013;BME280;53926;47.406;19.188;2023-01-25T11:28:40;101777.69;;;2.95;100.00
67013;BME280;53926;47.406;19.188;2023-01-25T11:31:15;101777.91;;;3.35;100.00
67013;BME280;53926;47.406;19.188;2023-01-25T11:33:43;101768.72;;;2.78;100.00
67013;BME280;53926;47.406;19.188;2023-01-25T11:36:24;101767.31;;;2.74;100.00
67013;BME280;53926;47.406;19.188;2023-01-25T11:42:33;101758.87;;;2.83;100.00
67013;BME280;53926;47.406;19.188;2023-01-25T11:50:32;101737.78;;;3.54;100.00
67013;BME280;53926;47.406;19.188;2023-01-25T12:01:20;101702.09;;;4.01;100.00
67013;BME280;53926;47.406;19.188;2023-01-25T12:07:17;101695.16;;;3.71;100.00
67013;BME280;53926;47.406;19.188;2023-01-25T12:17:48;101685.16;;;3.26;100.00
67013;BME280;53926;47.406;19.188;2023-01-25T12:26:28;101669.16;;;3.22;100.00
67013;BME280;53926;47.406;19.188;2023-01-25T12:31:58;101664.34;;;3.60;100.00
67013;BME280;53926;47.406;19.188;2023-01-25T12:34:29;101665.28;;;3.58;100.00
67013;BME280;53926;47.406;19.188;2023-01-25T12:37:21;101664.34;;;3.90;100.00
67013;BME280;53926;47.406;19.188;2023-01-25T12:39:59;101665.47;;;3.67;100.00
67013;BME280;53926;47.406;19.188;2023-01-25T12:42:49;101658.81;;;3.64;100.00
67013;BME280;53926;47.406;19.188;2023-01-25T12:45:37;101666.19;;;3.06;100.00
67013;BME280;53926;47.406;19.188;2023-01-25T12:50:46;101659.00;;;3.09;100.00
67013;BME280;53926;47.406;19.188;2023-01-25T12:53:19;101662.22;;;3.22;100.00
67013;BME280;53926;47.406;19.188;2023-01-25T12:55:49;101651.13;;;3.22;100.00
67013;BME280;53926;47.406;19.188;2023-01-25T12:58:41;101644.13;;;3.55;100.00
67013;BME280;53926;47.406;19.188;2023-01-25T13:04:34;101647.16;;;3.39;100.00
67013;BME280;53926;47.406;19.188;2023-01-25T13:07:16;101646.72;;;2.92;100.00
67013;BME280;53926;47.406;19.188;2023-01-25T13:12:20;101644.97;;;3.34;100.00
67013;BME280;53926;47.406;19.188;2023-01-25T13:14:47;101643.19;;;3.14;100.00
67013;BME280;53926;47.406;19.188;2023-01-25T13:17:43;101635.19;;;3.28;100.00
67013;BME280;53926;47.406;19.188;2023-01-25T13:23:34;101622.72;;;3.33;100.00
67013;BME280;53926;47.406;19.188;2023-01-25T13:28:47;101618.69;;;4.02;100.00
67013;BME280;53926;47.406;19.188;2023-01-25T13:37:41;101627.66;;;3.67;100.00
67013;BME280;53926;47.406;19.188;2023-01-25T13:43:19;101624.31;;;3.86;100.00
67013;BME280;53926;47.406;19.188;2023-01-25T13:45:49;101621.66;;;3.36;100.00
67013;BME280;53926;47.406;19.188;2023-01-25T13:48:22;101613.22;;;3.55;100.00
67013;BME280;53926;47.406;19.188;2023-01-25T13:51:05;101614.75;;;3.36;100.00
67013;BME280;53926;47.406;19.188;2023-01-25T13:53:36;101614.75;;;3.36;100.00
67013;BME280;53926;47.406;19.188;2023-01-25T13:56:23;101619.78;;;3.17;100.00
67013;BME280;53926;47.406;19.188;2023-01-25T13:58:50;101607.16;;;3.35;100.00
67013;BME280;53926;47.406;19.188;2023-01-25T14:01:18;101609.84;;;3.33;100.00
67013;BME280;53926;47.406;19.188;2023-01-25T14:03:51;101606.63;;;3.10;100.00
67013;BME280;53926;47.406;19.188;2023-01-25T14:08:58;101605.03;;;3.19;100.00
67013;BME280;53926;47.406;19.188;2023-01-25T14:11:32;101604.28;;;2.86;100.00
67013;BME280;53926;47.406;19.188;2023-01-25T14:14:12;101597.94;;;2.90;100.00
67013;BME280;53926;47.406;19.188;2023-01-25T14:16:43;101598.59;;;3.03;100.00
67013;BME280;53926;47.406;19.188;2023-01-25T14:19:26;101599.47;;;2.93;100.00
67013;BME280;53926;47.406;19.188;2023-01-25T14:22:24;101599.91;;;2.98;100.00
67013;BME280;53926;47.406;19.188;2023-01-25T14:25:19;101593.06;;;3.08;100.00
67013;BME280;53926;47.406;19.188;2023-01-25T14:28:14;101593.06;;;2.87;100.00
67013;BME280;53926;47.406;19.188;2023-01-25T14:30:41;101598.59;;;3.03;100.00
67013;BME280;53926;47.406;19.188;2023-01-25T14:35:48;101602.16;;;3.12;100.00
67013;BME280;53926;47.406;19.188;2023-01-25T14:38:31;101588.78;;;2.97;100.00
67013;BME280;53926;47.406;19.188;2023-01-25T14:41:18;101597.25;;;2.88;100.00